Time;durP1;ratioP1;P1;durP2;ratioP2;P2;SDS_P1;SDS_P2;PMS_P1;PMS_P2;Temp;Humidity;BMP_temperature;BMP_pressure;BME280_temperature;BME280_humidity;BME280_pressure;Samples;Min_cycle;Max_cycle;Signal;HPM_P1;HPM_P2
2022/07/26 00:01:19;;;;;;;19.45;3.58;;;19.10;99.90;;;;;;5112758;28;20035;-71
2022/07/26 00:03:46;;;;;;;19.58;3.65;;;19.00;99.90;;;;;;5113092;28;20036;-71
2022/07/26 00:06:12;;;;;;;14.05;3.30;;;19.00;99.90;;;;;;5092750;28;20142;-71
2022/07/26 00:08:37;;;;;;;16.35;3.33;;;19.00;99.90;;;;;;5099323;28;20079;-70
2022/07/26 00:11:03;;;;;;;15.13;3.20;;;19.10;99.90;;;;;;5113100;28;20442;-71
2022/07/26 00:13:29;;;;;;;18.33;3.58;;;19.10;99.90;;;;;;5112737;28;20401;-70
2022/07/26 00:15:55;;;;;;;15.02;3.63;;;19.00;99.90;;;;;;5112765;28;20066;-70
2022/07/26 00:18:21;;;;;;;14.93;3.25;;;19.00;99.90;;;;;;5113170;28;20036;-71
2022/07/26 00:20:47;;;;;;;19.92;3.78;;;19.20;99.90;;;;;;5112797;28;20035;-70
2022/07/26 00:23:13;;;;;;;14.50;3.25;;;19.00;99.90;;;;;;5111335;28;20042;-70
2022/07/26 00:25:39;;;;;;;16.27;3.63;;;19.00;99.90;;;;;;5113052;28;20043;-70
2022/07/26 00:28:05;;;;;;;19.02;3.58;;;19.00;99.90;;;;;;5112647;28;20039;-71
2022/07/26 00:30:31;;;;;;;14.68;3.10;;;19.00;99.90;;;;;;5112637;28;20449;-70
2022/07/26 00:32:57;;;;;;;12.57;3.50;;;19.00;99.90;;;;;;5112720;28;20048;-71
2022/07/26 00:35:23;;;;;;;20.00;3.67;;;19.00;99.90;;;;;;5112853;28;20054;-70
2022/07/26 00:37:48;;;;;;;14.05;3.50;;;19.00;99.90;;;;;;5107163;28;20119;-70
2022/07/26 00:40:15;;;;;;;12.70;3.13;;;19.00;99.90;;;;;;5111570;28;20046;-70
2022/07/26 00:42:41;;;;;;;11.80;3.58;;;19.00;99.90;;;;;;5112845;28;20065;-70
2022/07/26 00:45:08;;;;;;;12.50;3.50;;;19.10;99.90;;;;;;5112420;28;20047;-70
2022/07/26 00:47:34;;;;;;;12.65;3.17;;;19.00;99.90;;;;;;5112961;28;20050;-71
2022/07/26 00:50:00;;;;;;;16.65;3.22;;;18.90;99.90;;;;;;5145524;27;20051;-71
2022/07/26 00:52:26;;;;;;;14.25;3.35;;;18.90;99.90;;;;;;5112278;28;20499;-70
2022/07/26 00:54:53;;;;;;;15.73;3.70;;;19.00;99.90;;;;;;5112796;28;20051;-70
2022/07/26 00:57:20;;;;;;;12.27;3.50;;;18.90;99.90;;;;;;5105289;28;20070;-71
2022/07/26 00:59:47;;;;;;;16.67;3.63;;;18.90;99.90;;;;;;5092268;28;20377;-71
2022/07/26 01:02:12;;;;;;;13.88;3.20;;;19.20;99.90;;;;;;5105979;28;20124;-71
2022/07/26 01:04:38;;;;;;;13.48;3.50;;;18.90;99.90;;;;;;5112212;28;20086;-70
2022/07/26 01:07:05;;;;;;;11.63;3.33;;;18.90;99.90;;;;;;5112733;28;20046;-71
2022/07/26 01:09:31;;;;;;;11.90;3.28;;;18.90;99.90;;;;;;5112402;28;20403;-70
2022/07/26 01:11:58;;;;;;;11.30;3.00;;;18.90;99.90;;;;;;5112628;28;20054;-70
2022/07/26 01:14:24;;;;;;;10.07;2.65;;;19.00;99.90;;;;;;5112021;28;20127;-71
2022/07/26 01:16:53;;;;;;;9.00;2.80;;;18.90;99.90;;;;;;5113879;28;20094;-70
2022/07/26 01:19:20;;;;;;;12.18;3.40;;;19.20;99.90;;;;;;5116018;28;20075;-70
2022/07/26 01:21:45;;;;;;;11.35;3.25;;;18.90;99.90;;;;;;5114639;28;20040;-70
2022/07/26 01:24:11;;;;;;;13.52;3.22;;;18.90;99.90;;;;;;5116003;28;20046;-70
2022/07/26 01:26:37;;;;;;;13.70;3.13;;;18.90;99.90;;;;;;5104100;28;20076;-71
2022/07/26 01:29:04;;;;;;;12.13;2.90;;;19.20;99.90;;;;;;5115589;28;20514;-71
2022/07/26 01:31:30;;;;;;;10.93;3.20;;;19.00;99.90;;;;;;5114539;28;20055;-70
2022/07/26 01:33:55;;;;;;;9.73;2.72;;;19.00;99.90;;;;;;5116132;28;20071;-70
2022/07/26 01:36:21;;;;;;;11.00;2.92;;;19.30;99.90;;;;;;5115908;28;20467;-71
2022/07/26 01:38:47;;;;;;;7.68;2.83;;;19.00;99.90;;;;;;5114820;28;20372;-70
2022/07/26 01:41:12;;;;;;;9.50;2.90;;;19.00;99.90;;;;;;5115217;28;20070;-70
2022/07/26 01:43:38;;;;;;;8.48;2.67;;;19.10;99.90;;;;;;5115629;28;20097;-70
2022/07/26 01:46:07;;;;;;;9.15;3.15;;;19.00;99.90;;;;;;5115234;28;20545;-70
2022/07/26 01:48:33;;;;;;;7.70;2.90;;;18.90;99.90;;;;;;5097267;28;20082;-70
2022/07/26 01:50:59;;;;;;;8.52;2.90;;;18.90;99.90;;;;;;5115608;28;20431;-71
2022/07/26 01:53:25;;;;;;;9.60;2.78;;;19.30;99.90;;;;;;5115902;28;20039;-71
2022/07/26 01:55:51;;;;;;;7.57;3.00;;;18.90;99.90;;;;;;5115570;28;20047;-70
2022/07/26 01:58:17;;;;;;;10.35;3.03;;;18.90;99.90;;;;;;5114833;28;20074;-70
2022/07/26 02:00:43;;;;;;;8.57;3.13;;;19.40;99.90;;;;;;5114331;28;20044;-70
2022/07/26 02:03:09;;;;;;;8.50;2.80;;;18.90;99.90;;;;;;5115086;28;20043;-70
2022/07/26 02:05:34;;;;;;;8.75;2.60;;;18.90;99.90;;;;;;5115438;28;20058;-70
2022/07/26 02:08:00;;;;;;;10.10;2.95;;;18.80;99.90;;;;;;5114632;28;20046;-71
2022/07/26 02:10:59;;;;;;;8.93;2.70;;;19.10;99.90;;;;;;5114752;28;20480;-71
2022/07/26 02:13:13;;;;;;;8.05;2.88;;;18.80;99.90;;;;;;5113736;28;20105;-70
2022/07/26 02:15:39;;;;;;;8.90;2.75;;;18.80;99.90;;;;;;5115026;28;20160;-70
2022/07/26 02:18:04;;;;;;;8.70;3.00;;;19.40;99.90;;;;;;5115336;28;20153;-70
2022/07/26 02:20:32;;;;;;;7.22;2.83;;;18.80;99.90;;;;;;5114062;28;20047;-70
2022/07/26 02:23:00;;;;;;;8.68;2.78;;;18.90;99.90;;;;;;5114935;28;20062;-70
2022/07/26 02:25:25;;;;;;;8.07;2.80;;;18.90;99.90;;;;;;5115300;28;20108;-71
2022/07/26 02:27:51;;;;;;;13.55;3.60;;;19.00;99.90;;;;;;5115117;28;20032;-71
2022/07/26 02:30:17;;;;;;;11.07;4.10;;;18.90;99.90;;;;;;5114099;28;20051;-71
2022/07/26 02:32:42;;;;;;;9.85;3.20;;;18.80;99.90;;;;;;5114472;28;20119;-71
2022/07/26 02:35:09;;;;;;;6.60;2.58;;;18.70;99.90;;;;;;5114936;28;20394;-71
2022/07/26 02:37:35;;;;;;;7.10;2.50;;;18.50;99.90;;;;;;5102096;28;20043;-70
2022/07/26 02:40:01;;;;;;;7.05;2.47;;;18.40;99.90;;;;;;5094634;28;20035;-70
2022/07/26 02:42:28;;;;;;;5.45;2.15;;;18.30;99.90;;;;;;5094622;28;20048;-70
2022/07/26 02:44:53;;;;;;;6.25;2.25;;;18.20;99.90;;;;;;5097772;28;20054;-71
2022/07/26 02:47:19;;;;;;;7.97;2.20;;;18.20;99.90;;;;;;5114862;28;20397;-70
2022/07/26 02:49:45;;;;;;;6.75;2.25;;;18.10;99.90;;;;;;5114474;28;20047;-71
2022/07/26 02:52:10;;;;;;;8.13;2.33;;;18.00;99.90;;;;;;5096309;28;20185;-71
2022/07/26 02:54:36;;;;;;;8.82;2.60;;;18.20;99.90;;;;;;5114503;28;20047;-70
2022/07/26 02:57:02;;;;;;;7.57;2.83;;;18.10;99.90;;;;;;5114702;28;20040;-71
2022/07/26 02:59:28;;;;;;;7.22;2.55;;;18.00;99.90;;;;;;5114431;28;20051;-70
2022/07/26 03:01:54;;;;;;;9.32;2.38;;;18.20;99.90;;;;;;5112921;28;20051;-70
2022/07/26 03:04:19;;;;;;;7.82;2.65;;;18.00;99.90;;;;;;5113919;28;20050;-70
2022/07/26 03:06:45;;;;;;;8.30;2.33;;;18.60;99.90;;;;;;5114359;28;20237;-71
2022/07/26 03:09:11;;;;;;;11.65;2.75;;;18.00;99.90;;;;;;5114361;28;20104;-70
2022/07/26 03:11:37;;;;;;;8.25;2.33;;;18.00;99.90;;;;;;5114412;28;20100;-70
2022/07/26 03:14:03;;;;;;;10.05;2.58;;;18.00;99.90;;;;;;5114096;28;20479;-70
2022/07/26 03:16:28;;;;;;;8.48;2.13;;;18.00;99.90;;;;;;5114114;28;20463;-72
2022/07/26 03:18:54;;;;;;;8.27;2.50;;;18.00;99.90;;;;;;5114211;28;20105;-71
2022/07/26 03:21:19;;;;;;;13.68;2.53;;;18.00;99.90;;;;;;5113940;28;20040;-71
2022/07/26 03:23:45;;;;;;;8.13;2.22;;;18.00;99.90;;;;;;5114598;28;20090;-71
2022/07/26 03:26:11;;;;;;;8.43;2.03;;;18.00;99.90;;;;;;5106629;28;20422;-70
2022/07/26 03:28:38;;;;;;;7.53;2.42;;;18.10;99.90;;;;;;5105624;28;20066;-70
2022/07/26 03:31:04;;;;;;;9.20;1.90;;;18.20;99.90;;;;;;5112918;28;20059;-70
2022/07/26 03:33:30;;;;;;;9.02;2.00;;;17.90;99.90;;;;;;5113447;28;20040;-71
2022/07/26 03:35:55;;;;;;;6.88;2.08;;;17.90;99.90;;;;;;5113736;28;20447;-70
2022/07/26 03:38:21;;;;;;;9.00;2.63;;;17.80;99.90;;;;;;5113781;28;20043;-70
2022/07/26 03:40:47;;;;;;;6.00;1.88;;;17.80;99.90;;;;;;5113233;28;20415;-71
2022/07/26 03:43:12;;;;;;;11.48;1.88;;;17.80;99.90;;;;;;5113621;28;20047;-70
2022/07/26 03:45:38;;;;;;;10.68;2.20;;;17.80;99.90;;;;;;5113707;28;20373;-70
2022/07/26 03:48:04;;;;;;;6.45;1.65;;;17.90;99.90;;;;;;5113636;28;20131;-70
2022/07/26 03:50:30;;;;;;;12.20;2.03;;;17.80;99.90;;;;;;5113381;28;20079;-70
2022/07/26 03:52:55;;;;;;;7.80;2.05;;;17.90;99.90;;;;;;5112989;28;20547;-70
2022/07/26 03:58:05;;;;;;;9.20;1.80;;;17.90;99.90;;;;;;5106079;27;20044;-71
2022/07/26 04:00:30;;;;;;;6.85;1.80;;;17.80;99.90;;;;;;5092980;28;20534;-70
2022/07/26 04:02:56;;;;;;;7.28;1.70;;;17.80;99.90;;;;;;5091733;28;20043;-71
2022/07/26 04:05:22;;;;;;;7.28;1.60;;;17.80;99.90;;;;;;5092860;28;20039;-70
2022/07/26 04:07:47;;;;;;;7.70;1.80;;;17.70;99.90;;;;;;5105753;28;20127;-70
2022/07/26 04:10:14;;;;;;;16.90;1.85;;;17.70;99.90;;;;;;5111926;28;20047;-70
2022/07/26 04:12:40;;;;;;;7.05;1.77;;;17.70;99.90;;;;;;5111335;28;20480;-70
2022/07/26 04:15:06;;;;;;;5.63;1.33;;;17.90;99.90;;;;;;5112399;28;20043;-70
2022/07/26 04:17:41;;;;;;;8.63;1.83;;;17.80;99.90;;;;;;5113037;28;20403;-70
2022/07/26 04:20:09;;;;;;;7.60;1.60;;;17.80;99.90;;;;;;5093875;28;20054;-71
2022/07/26 04:22:38;;;;;;;6.40;1.80;;;17.80;99.90;;;;;;5107425;28;20043;-71
2022/07/26 04:25:05;;;;;;;5.28;1.70;;;17.70;99.90;;;;;;5094828;28;20047;-70
2022/07/26 04:27:31;;;;;;;5.93;1.70;;;17.80;99.90;;;;;;5113000;28;20044;-72
2022/07/26 04:29:57;;;;;;;8.57;1.60;;;17.80;99.90;;;;;;5111278;28;20047;-71
2022/07/26 04:32:22;;;;;;;6.20;1.52;;;17.80;99.90;;;;;;5112887;28;20090;-70
2022/07/26 04:34:48;;;;;;;12.35;1.83;;;17.80;99.90;;;;;;5146019;27;20067;-70
2022/07/26 04:37:14;;;;;;;5.72;1.63;;;17.80;99.90;;;;;;5112693;28;20052;-71
2022/07/26 04:39:39;;;;;;;9.45;1.35;;;17.80;99.90;;;;;;5112627;28;20039;-70
2022/07/26 04:42:05;;;;;;;5.65;1.48;;;17.80;99.90;;;;;;5112450;28;20131;-72
2022/07/26 04:44:31;;;;;;;6.93;1.65;;;17.80;99.90;;;;;;5112456;28;20035;-72
2022/07/26 04:46:56;;;;;;;7.53;1.58;;;17.80;99.90;;;;;;5112244;28;20043;-72
2022/07/26 04:49:22;;;;;;;5.93;1.50;;;17.80;99.90;;;;;;5110259;28;20032;-72
2022/07/26 04:51:48;;;;;;;9.05;1.67;;;17.80;99.90;;;;;;5112758;28;20047;-73
2022/07/26 04:54:19;;;;;;;8.65;1.50;;;17.70;99.90;;;;;;5116690;28;20043;-73
2022/07/26 04:56:48;;;;;;;10.80;1.52;;;17.90;99.90;;;;;;5114296;28;20039;-72
2022/07/26 04:59:14;;;;;;;10.60;1.58;;;17.80;99.90;;;;;;5096035;28;20076;-73
2022/07/26 05:01:40;;;;;;;5.55;1.40;;;17.80;99.90;;;;;;5096346;28;20040;-72
2022/07/26 05:04:06;;;;;;;6.07;1.20;;;17.90;99.90;;;;;;5105644;28;20044;-72
2022/07/26 05:06:31;;;;;;;6.07;1.40;;;17.80;99.90;;;;;;5116417;28;20530;-72
2022/07/26 05:08:57;;;;;;;6.53;1.42;;;17.80;99.90;;;;;;5116781;28;20112;-72
2022/07/26 05:11:23;;;;;;;5.45;1.63;;;17.80;99.90;;;;;;5113247;28;20504;-73
2022/07/26 05:13:52;;;;;;;8.20;1.50;;;18.30;99.90;;;;;;5096078;28;20436;-72
2022/07/26 05:16:17;;;;;;;6.25;1.63;;;17.80;99.90;;;;;;5108908;28;20035;-73
2022/07/26 05:18:43;;;;;;;4.00;1.20;;;17.80;99.90;;;;;;5115593;28;20127;-72
2022/07/26 05:21:09;;;;;;;5.78;1.52;;;17.70;99.90;;;;;;5116420;28;20046;-72
2022/07/26 05:23:34;;;;;;;7.95;1.38;;;17.70;99.90;;;;;;5116258;28;20043;-72
2022/07/26 05:26:00;;;;;;;6.30;1.60;;;17.70;99.90;;;;;;5114531;28;20043;-72
2022/07/26 05:28:26;;;;;;;8.48;1.92;;;17.60;99.90;;;;;;5116063;28;20495;-72
2022/07/26 05:30:51;;;;;;;3.67;1.52;;;17.60;99.90;;;;;;5115271;28;20527;-72
2022/07/26 05:33:17;;;;;;;7.25;1.23;;;17.50;99.90;;;;;;5113021;28;20066;-72
2022/07/26 05:35:43;;;;;;;4.53;1.30;;;17.50;99.90;;;;;;5115498;28;20059;-73
2022/07/26 05:38:08;;;;;;;5.88;1.40;;;17.40;99.90;;;;;;5139677;27;20507;-73
2022/07/26 05:40:34;;;;;;;5.95;1.50;;;17.40;99.90;;;;;;5116108;28;20039;-73
2022/07/26 05:43:00;;;;;;;4.80;1.30;;;17.30;99.90;;;;;;5115787;28;20480;-72
2022/07/26 05:45:25;;;;;;;4.65;1.30;;;17.30;99.90;;;;;;5129776;27;20047;-72
2022/07/26 05:47:52;;;;;;;3.70;1.35;;;17.40;99.90;;;;;;5097392;28;20142;-73
2022/07/26 05:50:18;;;;;;;5.68;1.30;;;17.40;99.90;;;;;;5092069;28;20373;-73
2022/07/26 05:52:44;;;;;;;5.72;1.25;;;17.30;99.90;;;;;;5094071;28;20096;-73
2022/07/26 05:55:10;;;;;;;6.55;1.75;;;17.40;99.90;;;;;;5127878;27;20127;-73
2022/07/26 05:57:40;;;;;;;3.85;1.30;;;17.50;99.90;;;;;;5095297;28;20373;-73
2022/07/26 06:00:07;;;;;;;8.73;1.42;;;17.70;99.90;;;;;;5100518;28;20078;-72
2022/07/26 06:02:33;;;;;;;8.27;1.60;;;17.60;99.90;;;;;;5113812;28;20038;-72
2022/07/26 06:04:58;;;;;;;5.55;1.35;;;17.70;99.90;;;;;;5114388;28;20051;-72
2022/07/26 06:07:24;;;;;;;7.30;1.40;;;17.80;99.90;;;;;;5097401;28;20415;-73
2022/07/26 06:09:50;;;;;;;8.40;1.50;;;17.80;99.90;;;;;;5115143;28;20118;-72
2022/07/26 06:12:15;;;;;;;9.07;1.40;;;17.90;99.90;;;;;;5112963;28;20138;-73
2022/07/26 06:14:41;;;;;;;10.20;1.58;;;18.10;99.90;;;;;;5133012;27;20488;-73
2022/07/26 06:17:06;;;;;;;9.27;1.75;;;18.00;99.90;;;;;;5135455;27;20047;-73
2022/07/26 06:19:32;;;;;;;7.60;1.50;;;18.00;99.90;;;;;;5135641;27;20039;-73
2022/07/26 06:21:58;;;;;;;10.23;1.50;;;18.00;99.90;;;;;;5135539;27;20035;-73
2022/07/26 06:24:24;;;;;;;6.13;1.35;;;18.40;99.90;;;;;;5134284;27;20120;-73
2022/07/26 06:26:52;;;;;;;8.32;1.58;;;18.10;99.90;;;;;;5122976;27;20630;-73
2022/07/26 06:29:17;;;;;;;5.22;1.40;;;18.20;99.90;;;;;;5113474;28;20051;-73
2022/07/26 06:31:43;;;;;;;6.68;1.27;;;18.10;99.90;;;;;;5114489;28;20050;-73
2022/07/26 06:34:09;;;;;;;6.38;1.70;;;18.00;99.90;;;;;;5114401;28;20114;-72
2022/07/26 06:36:34;;;;;;;8.77;1.70;;;18.00;99.90;;;;;;5112806;28;20050;-73
2022/07/26 06:39:00;;;;;;;6.20;1.40;;;17.80;99.90;;;;;;5133273;27;20124;-73
2022/07/26 06:41:26;;;;;;;7.18;1.80;;;17.90;99.90;;;;;;5130319;27;20384;-73
2022/07/26 06:43:52;;;;;;;7.95;1.60;;;17.90;99.90;;;;;;5113881;28;20040;-73
2022/07/26 06:46:19;;;;;;;12.80;2.35;;;17.90;99.90;;;;;;5114550;28;20399;-73
2022/07/26 06:48:45;;;;;;;5.82;1.60;;;18.00;99.90;;;;;;5113817;28;20047;-73
2022/07/26 06:51:11;;;;;;;8.20;1.75;;;18.10;99.90;;;;;;5114410;28;20050;-73
2022/07/26 06:53:37;;;;;;;6.13;1.45;;;18.10;99.90;;;;;;5114473;28;20495;-73
2022/07/26 06:56:03;;;;;;;9.80;1.70;;;18.30;99.90;;;;;;5113751;28;20089;-73
2022/07/26 06:58:28;;;;;;;4.88;1.42;;;18.40;99.90;;;;;;5097385;28;20435;-73
2022/07/26 07:00:54;;;;;;;3.90;1.20;;;18.40;99.90;;;;;;5095841;28;20128;-73
2022/07/26 07:03:20;;;;;;;6.45;1.30;;;18.80;99.90;;;;;;5136748;27;20038;-73
2022/07/26 07:05:46;;;;;;;8.38;1.30;;;18.60;99.90;;;;;;5100539;28;20119;-72
2022/07/26 07:08:13;;;;;;;7.70;1.60;;;18.60;99.90;;;;;;5111611;27;20048;-72
2022/07/26 07:10:38;;;;;;;5.72;1.30;;;18.60;99.90;;;;;;5100418;28;20107;-73
2022/07/26 07:13:04;;;;;;;4.57;1.27;;;18.50;99.90;;;;;;5116338;27;20071;-73
2022/07/26 07:15:30;;;;;;;4.60;1.42;;;18.50;99.90;;;;;;5131158;27;20043;-72
2022/07/26 07:17:55;;;;;;;4.57;1.45;;;18.30;99.90;;;;;;5111832;28;20067;-73
2022/07/26 07:20:21;;;;;;;4.57;1.27;;;18.40;99.90;;;;;;5093735;28;20051;-73
2022/07/26 07:22:47;;;;;;;6.82;2.45;;;18.50;99.90;;;;;;5109551;28;20032;-73
2022/07/26 07:25:12;;;;;;;6.05;1.88;;;18.60;99.90;;;;;;5113731;28;20502;-73
2022/07/26 07:27:38;;;;;;;8.35;1.60;;;18.70;99.90;;;;;;5102023;28;20044;-73
2022/07/26 07:30:05;;;;;;;7.20;1.60;;;18.90;99.90;;;;;;5101660;28;20545;-73
2022/07/26 07:32:31;;;;;;;9.43;1.85;;;19.00;99.90;;;;;;5111551;28;20162;-73
2022/07/26 07:34:57;;;;;;;5.93;1.42;;;19.00;99.90;;;;;;5108595;28;20516;-73
2022/07/26 07:37:22;;;;;;;8.07;1.67;;;19.10;99.90;;;;;;5094936;28;20036;-73
2022/07/26 07:39:48;;;;;;;7.38;1.50;;;19.20;99.90;;;;;;5112326;28;20096;-73
2022/07/26 07:42:14;;;;;;;6.72;1.60;;;19.30;99.90;;;;;;5113507;28;20039;-72
2022/07/26 07:44:40;;;;;;;8.23;2.05;;;19.40;99.90;;;;;;5112375;28;20035;-74
2022/07/26 07:47:07;;;;;;;10.77;2.17;;;19.30;99.90;;;;;;5113304;28;20050;-74
2022/07/26 07:49:33;;;;;;;7.13;1.63;;;19.10;99.90;;;;;;5107483;28;20040;-74
2022/07/26 07:51:59;;;;;;;4.68;1.50;;;18.90;99.90;;;;;;5099945;28;20436;-75
2022/07/26 07:54:25;;;;;;;8.55;1.75;;;18.90;99.90;;;;;;5135588;27;20082;-74
2022/07/26 07:56:51;;;;;;;8.18;2.08;;;19.00;99.90;;;;;;5092865;28;20058;-72
2022/07/26 07:59:17;;;;;;;9.27;1.80;;;18.80;99.90;;;;;;5109138;28;20044;-75
2022/07/26 08:01:43;;;;;;;7.00;1.50;;;18.90;99.90;;;;;;5121034;27;20398;-74
2022/07/26 08:04:08;;;;;;;6.70;1.70;;;18.90;99.90;;;;;;5112556;28;20040;-74
2022/07/26 08:06:35;;;;;;;8.05;1.60;;;19.00;99.90;;;;;;5113043;28;20053;-74
2022/07/26 08:09:00;;;;;;;6.07;1.67;;;19.00;99.90;;;;;;5111605;28;20048;-74
2022/07/26 08:11:26;;;;;;;6.63;1.50;;;19.10;99.90;;;;;;5110696;28;20044;-74
2022/07/26 08:13:52;;;;;;;4.30;1.70;;;19.20;99.90;;;;;;5099687;28;20036;-74
2022/07/26 08:16:18;;;;;;;6.07;1.52;;;19.20;99.90;;;;;;5092368;28;20142;-74
2022/07/26 08:18:43;;;;;;;7.90;1.70;;;19.40;99.90;;;;;;5098734;28;20412;-74
2022/07/26 08:21:09;;;;;;;5.72;1.40;;;19.50;99.90;;;;;;5112739;28;20039;-74
2022/07/26 08:23:35;;;;;;;4.38;1.27;;;19.70;99.90;;;;;;5112436;28;20496;-74
2022/07/26 08:26:01;;;;;;;9.75;1.90;;;19.90;99.90;;;;;;5110694;28;20066;-74
2022/07/26 08:28:27;;;;;;;8.20;1.75;;;20.00;99.90;;;;;;5095663;28;20040;-73
2022/07/26 08:30:53;;;;;;;7.35;1.42;;;20.00;99.90;;;;;;5108572;28;20099;-82
2022/07/26 08:33:18;;;;;;;7.88;1.70;;;20.10;99.90;;;;;;5109766;28;20083;-71
2022/07/26 08:35:44;;;;;;;6.25;1.80;;;20.00;99.90;;;;;;5108765;28;20114;-71
2022/07/26 08:38:10;;;;;;;8.55;1.95;;;20.10;99.90;;;;;;5108746;28;20459;-72
2022/07/26 08:40:36;;;;;;;7.18;1.63;;;20.00;99.90;;;;;;5109675;28;20430;-71
2022/07/26 08:43:02;;;;;;;7.75;1.70;;;20.00;99.90;;;;;;5109570;28;20051;-71
2022/07/26 08:45:30;;;;;;;7.00;1.90;;;19.90;99.90;;;;;;5109418;28;20055;-71
2022/07/26 08:47:56;;;;;;;7.97;1.90;;;19.70;99.90;;;;;;5109437;28;20086;-71
2022/07/26 08:50:22;;;;;;;10.02;2.35;;;19.50;99.90;;;;;;5142704;27;20089;-71
2022/07/26 08:52:49;;;;;;;9.75;1.90;;;19.60;99.90;;;;;;5107532;28;20052;-71
2022/07/26 08:55:17;;;;;;;7.50;2.38;;;20.00;99.90;;;;;;5106109;28;20511;-71
2022/07/26 08:57:43;;;;;;;8.65;2.00;;;19.80;99.90;;;;;;5109210;28;20078;-71
2022/07/26 09:00:24;;;;;;;8.07;1.90;;;20.00;99.90;;;;;;5108950;28;20036;-71
2022/07/26 09:02:52;;;;;;;11.43;2.15;;;20.10;99.90;;;;;;5098874;28;20051;-71
2022/07/26 09:05:19;;;;;;;10.48;2.25;;;20.10;99.90;;;;;;5088847;28;20039;-71
2022/07/26 09:07:45;;;;;;;13.85;2.30;;;20.00;99.90;;;;;;5088782;28;20043;-72
2022/07/26 09:10:15;;;;;;;9.55;2.30;;;19.80;99.90;;;;;;5088711;28;20040;-72
2022/07/26 09:12:41;;;;;;;9.90;2.20;;;19.70;99.90;;;;;;5105088;28;20122;-83
2022/07/26 09:15:17;;;;;;;13.98;2.40;;;19.50;99.90;;;;;;5112451;28;20044;-83
2022/07/26 09:17:45;;;;;;;9.70;2.10;;;19.50;99.90;;;;;;5111404;28;20054;-82
2022/07/26 09:20:16;;;;;;;8.73;2.45;;;19.60;99.90;;;;;;5112491;28;20059;-82
2022/07/26 09:23:00;;;;;;;8.52;2.30;;;19.50;99.90;;;;;;5111594;28;20039;-82
2022/07/26 09:25:28;;;;;;;8.70;2.22;;;19.50;99.90;;;;;;5112539;28;20052;-83
2022/07/26 09:27:54;;;;;;;7.63;2.13;;;19.50;99.90;;;;;;5113292;28;20095;-82
2022/07/26 09:30:20;;;;;;;10.02;2.25;;;19.50;99.90;;;;;;5111810;28;20052;-83
2022/07/26 09:32:57;;;;;;;12.45;2.50;;;19.40;99.90;;;;;;5112480;28;20518;-82
2022/07/26 09:35:23;;;;;;;11.38;2.92;;;19.40;99.90;;;;;;5112861;28;20349;-83
2022/07/26 09:37:48;;;;;;;10.68;2.35;;;19.50;99.90;;;;;;5113595;28;20043;-82
2022/07/26 09:40:16;;;;;;;13.73;2.83;;;19.70;99.90;;;;;;5149587;27;20047;-82
2022/07/26 09:43:00;;;;;;;14.38;2.85;;;19.70;99.90;;;;;;5115517;28;20051;-82
2022/07/26 09:45:28;;;;;;;14.07;2.65;;;19.90;99.90;;;;;;5114731;27;20050;-82
2022/07/26 09:47:54;;;;;;;15.25;2.63;;;19.70;99.90;;;;;;5116520;27;20044;-80
2022/07/26 09:50:26;;;;;;;17.40;3.00;;;19.70;99.90;;;;;;5115853;28;20412;-80
2022/07/26 09:53:09;;;;;;;13.23;2.92;;;19.70;99.90;;;;;;5115678;28;20050;-80
2022/07/26 09:55:45;;;;;;;13.85;2.50;;;19.80;99.90;;;;;;5114401;28;20039;-76
2022/07/26 09:58:12;;;;;;;16.05;2.65;;;19.70;99.90;;;;;;5115293;28;20043;-77
2022/07/26 10:00:39;;;;;;;11.32;2.58;;;19.70;99.90;;;;;;5108768;28;20177;-77
2022/07/26 10:03:05;;;;;;;11.25;2.60;;;19.80;99.90;;;;;;5099645;28;20032;-77
2022/07/26 10:05:31;;;;;;;13.23;2.38;;;19.80;99.90;;;;;;5076185;28;20043;-78
2022/07/26 10:07:58;;;;;;;13.15;2.80;;;19.90;99.90;;;;;;5097815;28;20040;-79
2022/07/26 10:10:44;;;;;;;7.38;2.20;;;20.20;99.90;;;;;;5118684;27;20126;-80
2022/07/26 10:13:10;;;;;;;9.82;2.10;;;20.40;99.90;;;;;;5109118;27;20047;-80
2022/07/26 10:15:44;;;;;;;13.18;2.33;;;20.60;99.90;;;;;;5112091;27;20052;-80
2022/07/26 10:18:29;;;;;;;6.85;1.90;;;20.70;99.90;;;;;;5110350;28;20118;-80
2022/07/26 10:20:55;;;;;;;9.15;2.42;;;20.80;99.90;;;;;;5111910;28;20044;-80
2022/07/26 10:23:42;;;;;;;11.57;2.63;;;20.90;99.90;;;;;;5115523;28;20518;-79
2022/07/26 10:26:10;;;;;;;5.18;1.90;;;21.00;99.90;;;;;;5115341;28;20043;-80
2022/07/26 10:28:37;;;;;;;14.60;2.50;;;21.20;99.90;;;;;;5100670;28;20122;-80
2022/07/26 10:31:23;;;;;;;10.43;2.30;;;21.60;99.90;;;;;;5092432;28;20582;-80
2022/07/26 10:33:52;;;;;;;8.57;2.13;;;21.80;99.90;;;;;;5096819;28;20034;-80
2022/07/26 10:36:25;;;;;;;13.45;2.38;;;22.00;99.90;;;;;;5113423;28;20061;-80
2022/07/26 10:39:10;;;;;;;8.27;1.85;;;22.10;99.90;;;;;;5101584;28;20033;-80
2022/07/26 10:41:44;;;;;;;9.95;2.15;;;22.10;99.90;;;;;;5098968;28;20080;-79
2022/07/26 10:44:20;;;;;;;9.30;2.15;;;22.20;99.90;;;;;;5098649;28;20098;-73
2022/07/26 10:47:06;;;;;;;12.65;2.30;;;22.20;99.90;;;;;;5101323;28;20052;-71
2022/07/26 10:49:36;;;;;;;;;;;22.30;99.90;;;;;;5091452;28;20044;-71
2022/07/26 10:52:11;;;;;;;10.30;2.13;;;22.50;99.90;;;;;;5091053;28;19935;-72
2022/07/26 10:54:55;;;;;;;8.35;1.90;;;23.00;99.80;;;;;;5090705;28;20430;-72
2022/07/26 10:57:40;;;;;;;8.93;1.90;;;23.40;98.40;;;;;;5094350;27;20218;-72
2022/07/26 11:00:18;;;;;;;7.30;1.80;;;23.90;98.40;;;;;;5109958;28;20424;-72
2022/07/26 11:02:48;;;;;;;8.23;2.17;;;24.40;98.60;;;;;;5100969;28;20058;-72
2022/07/26 11:05:20;;;;;;;7.45;1.80;;;24.70;97.40;;;;;;5108883;28;20160;-72
2022/07/26 11:08:04;;;;;;;7.05;1.90;;;25.50;96.60;;;;;;5110616;28;20055;-72
2022/07/26 11:10:47;;;;;;;5.50;1.80;;;26.20;95.60;;;;;;5108465;28;20410;-72
2022/07/26 11:13:18;;;;;;;7.90;1.70;;;26.00;94.40;;;;;;5089923;28;20123;-72
2022/07/26 11:15:46;;;;;;;5.13;1.58;;;27.20;94.80;;;;;;5091490;28;20054;-72
2022/07/26 11:18:18;;;;;;;4.85;1.65;;;29.30;93.40;;;;;;5112505;28;20042;-72
2022/07/26 11:20:47;;;;;;;5.47;1.60;;;30.20;91.90;;;;;;5113506;28;20118;-72
2022/07/26 11:23:33;;;;;;;5.18;1.70;;;31.00;91.60;;;;;;5107142;28;20044;-72
2022/07/26 11:26:03;;;;;;;6.38;1.83;;;31.50;90.00;;;;;;5093073;28;20075;-72
2022/07/26 11:28:29;;;;;;;10.63;1.80;;;32.60;90.20;;;;;;5092859;28;20530;-72
2022/07/26 11:30:59;;;;;;;4.40;1.50;;;33.90;87.90;;;;;;5099525;28;20051;-72
2022/07/26 11:33:38;;;;;;;6.82;1.50;;;34.00;85.40;;;;;;5111937;28;20138;-73
2022/07/26 11:36:05;;;;;;;5.65;1.80;;;32.90;83.80;;;;;;5097329;28;20480;-72
2022/07/26 11:38:50;;;;;;;5.13;1.77;;;32.40;86.50;;;;;;5095278;27;20063;-72
2022/07/26 11:41:24;;;;;;;6.25;1.85;;;32.70;84.70;;;;;;5092604;28;20054;-72
2022/07/26 11:43:51;;;;;;;5.22;1.38;;;32.40;83.30;;;;;;5092073;28;20047;-71
2022/07/26 11:46:18;;;;;;;4.88;1.48;;;31.10;85.10;;;;;;5102540;28;20096;-71
2022/07/26 11:48:51;;;;;;;6.90;1.30;;;30.00;85.70;;;;;;5112906;28;20392;-71
2022/07/26 11:51:19;;;;;;;6.97;1.40;;;29.30;86.40;;;;;;5098532;28;20488;-71
2022/07/26 11:53:45;;;;;;;6.43;1.50;;;28.30;87.30;;;;;;5092310;28;20040;-70
2022/07/26 11:56:21;;;;;;;4.95;1.52;;;28.30;88.00;;;;;;5091523;28;20382;-70
2022/07/26 11:58:49;;;;;;;5.03;1.33;;;28.00;87.80;;;;;;5105725;28;20054;-70
2022/07/26 12:01:17;;;;;;;4.72;1.30;;;27.40;89.10;;;;;;5110327;28;20143;-70
2022/07/26 12:03:45;;;;;;;4.55;1.23;;;26.70;89.10;;;;;;5112271;28;20031;-71
2022/07/26 12:06:13;;;;;;;5.45;1.50;;;26.50;89.20;;;;;;5112572;28;20047;-71
2022/07/26 12:08:42;;;;;;;3.60;1.40;;;26.30;89.80;;;;;;5111400;28;20032;-71
2022/07/26 12:11:08;;;;;;;4.95;1.55;;;26.10;90.00;;;;;;5110893;28;20380;-70
2022/07/26 12:13:55;;;;;;;5.53;1.50;;;26.10;90.00;;;;;;5111117;28;20210;-70
2022/07/26 12:16:44;;;;;;;5.13;1.40;;;26.10;89.30;;;;;;5110656;28;20043;-71
2022/07/26 12:19:16;;;;;;;6.82;1.83;;;25.80;90.20;;;;;;5111047;28;20044;-70
2022/07/26 12:21:45;;;;;;;7.07;1.50;;;25.00;91.30;;;;;;5112189;28;20375;-70
2022/07/26 12:24:31;;;;;;;6.20;1.92;;;24.30;91.90;;;;;;5110700;28;20088;-70
2022/07/26 12:27:18;;;;;;;7.80;1.65;;;24.00;92.40;;;;;;5109322;28;20090;-70
2022/07/26 12:29:45;;;;;;;7.57;1.58;;;23.90;92.80;;;;;;5111772;28;20059;-70
2022/07/26 12:32:15;;;;;;;8.10;1.90;;;23.70;93.00;;;;;;5111369;28;20128;-70
2022/07/26 12:34:54;;;;;;;4.72;1.50;;;23.60;93.00;;;;;;5110783;28;20047;-70
2022/07/26 12:37:21;;;;;;;6.97;1.77;;;23.20;93.00;;;;;;5112304;28;20054;-70
2022/07/26 12:40:16;;;;;;;5.97;1.50;;;23.00;93.20;;;;;;5110623;28;20122;-70
2022/07/26 12:43:02;;;;;;;5.93;1.80;;;23.10;93.10;;;;;;5101961;28;20044;-70
2022/07/26 12:45:30;;;;;;;8.73;2.17;;;22.90;93.70;;;;;;5111050;28;20499;-71
2022/07/26 12:47:57;;;;;;;7.80;1.80;;;22.90;93.90;;;;;;5111559;28;20040;-71
2022/07/26 12:50:25;;;;;;;5.95;1.73;;;22.80;94.30;;;;;;5112164;28;20040;-71
2022/07/26 12:52:58;;;;;;;7.53;1.70;;;22.90;94.50;;;;;;5111288;28;20150;-72